createdAt,value
2023-05-12T05:06:53.515Z,14.56
2023-05-12T05:10:01.601Z,14.70
2023-05-12T05:12:55.204Z,14.76
2023-05-12T05:16:03.615Z,14.84
2023-05-12T05:18:58.357Z,14.87
2023-05-12T05:21:57.899Z,14.93
2023-05-12T05:24:59.006Z,15.00
2023-05-12T05:27:59.870Z,15.10
2023-05-12T05:31:01.045Z,15.20
2023-05-12T05:34:01.924Z,15.31
2023-05-12T05:37:03.045Z,15.41
2023-05-12T05:40:03.898Z,15.52
2023-05-12T05:43:05.049Z,15.66
2023-05-12T05:46:05.932Z,15.76
2023-05-12T05:49:07.060Z,15.90
2023-05-12T05:52:08.007Z,16.11
2023-05-12T05:55:09.104Z,16.30
2023-05-12T05:58:09.978Z,16.46
2023-05-12T06:01:11.106Z,16.52
2023-05-12T06:04:12.015Z,16.64
2023-05-12T06:07:13.295Z,16.64
2023-05-12T06:10:13.650Z,16.71
2023-05-12T06:13:14.778Z,17.00
2023-05-12T06:16:15.875Z,16.96
2023-05-12T06:19:16.526Z,16.92
2023-05-12T06:22:17.461Z,16.66
2023-05-12T06:25:18.780Z,16.40
2023-05-12T06:28:19.282Z,16.28
2023-05-12T06:31:20.529Z,16.08
2023-05-12T06:34:20.917Z,15.93
2023-05-12T06:37:22.114Z,15.73
2023-05-12T06:40:22.946Z,15.79
2023-05-12T06:43:24.131Z,15.65
2023-05-12T06:46:25.046Z,15.66
2023-05-12T06:49:26.147Z,15.70
2023-05-12T06:52:27.094Z,15.82
2023-05-12T06:55:28.188Z,15.87
2023-05-12T06:58:29.073Z,16.05
2023-05-12T07:01:30.246Z,16.34
2023-05-12T07:04:31.171Z,16.36
2023-05-12T07:07:32.320Z,16.33
2023-05-12T07:10:33.196Z,16.42
2023-05-12T07:13:34.315Z,16.50
2023-05-12T07:16:35.427Z,16.64
2023-05-12T07:19:36.068Z,16.78
2023-05-12T07:22:38.806Z,16.91
2023-05-12T07:25:37.441Z,17.10
2023-05-12T07:28:38.594Z,17.06
2023-05-12T07:31:39.511Z,17.19
2023-05-12T07:34:40.648Z,17.26
2023-05-12T07:37:41.536Z,17.32
2023-05-12T07:40:42.696Z,17.42
2023-05-12T07:43:43.596Z,17.50
2023-05-12T07:46:44.739Z,17.52
2023-05-12T07:49:45.602Z,17.55
2023-05-12T07:52:46.924Z,17.65
2023-05-12T07:55:47.252Z,17.63
2023-05-12T07:58:48.397Z,17.71
2023-05-12T08:01:49.287Z,17.77
2023-05-12T08:04:50.443Z,17.82
2023-05-12T08:07:51.377Z,17.76
2023-05-12T08:10:52.505Z,17.86
2023-05-12T08:13:53.346Z,18.11
2023-05-12T08:16:54.594Z,18.49
2023-05-12T08:19:54.942Z,18.92
2023-05-12T08:22:56.248Z,19.21
2023-05-12T08:25:56.577Z,19.61
2023-05-12T08:28:57.758Z,19.83
2023-05-12T08:31:58.629Z,20.25
2023-05-12T08:34:59.769Z,20.53
2023-05-12T08:38:00.676Z,20.92
2023-05-12T08:41:01.833Z,21.26
2023-05-12T08:44:02.702Z,21.63
2023-05-12T08:47:03.869Z,21.84
2023-05-12T08:50:04.705Z,21.92
2023-05-12T08:53:06.345Z,22.04
2023-05-12T08:59:07.448Z,22.58
2023-05-12T09:02:08.336Z,22.62
2023-05-12T09:05:08.968Z,22.56
2023-05-12T09:08:09.907Z,22.42
2023-05-12T09:11:10.971Z,22.20
2023-05-12T09:14:11.899Z,22.35
2023-05-12T09:17:12.979Z,22.31
2023-05-12T09:20:27.893Z,22.55
2023-05-12T09:23:15.441Z,22.85
2023-05-12T09:26:15.508Z,22.91
2023-05-12T09:29:27.811Z,23.41
2023-05-12T09:32:20.942Z,24.02
2023-05-12T09:35:18.021Z,24.02
2023-05-12T09:38:18.512Z,23.70
2023-05-12T09:41:19.597Z,23.73
2023-05-12T09:44:20.455Z,24.43
2023-05-12T09:47:21.738Z,25.02
2023-05-12T09:50:22.058Z,24.80
2023-05-12T09:53:23.236Z,24.59
2023-05-12T09:56:23.751Z,24.28
2023-05-12T09:59:24.945Z,23.63
2023-05-12T10:02:25.865Z,23.72
2023-05-12T10:05:26.566Z,23.15
2023-05-12T10:08:27.533Z,22.86
2023-05-12T10:11:28.676Z,22.84
2023-05-12T10:14:29.593Z,22.62
2023-05-12T10:17:30.718Z,22.21
2023-05-12T10:20:31.584Z,22.20
2023-05-12T10:23:32.844Z,22.35
2023-05-12T10:26:33.202Z,22.57
2023-05-12T10:29:34.338Z,22.30
2023-05-12T10:32:35.246Z,22.05
2023-05-12T10:35:36.449Z,21.94
2023-05-12T10:38:37.351Z,21.86
2023-05-12T10:41:38.431Z,21.55
2023-05-12T10:44:39.293Z,21.69
2023-05-12T10:47:40.498Z,22.29
2023-05-12T10:50:41.329Z,22.47
2023-05-12T10:53:50.143Z,22.67
2023-05-12T10:56:44.401Z,22.69
2023-05-12T10:59:43.957Z,22.77
2023-05-12T11:02:44.963Z,22.92
2023-05-12T11:05:45.864Z,22.35
2023-05-12T11:08:46.376Z,22.10
2023-05-12T11:11:47.613Z,21.87
2023-05-12T11:14:47.419Z,21.78
2023-05-12T11:17:48.091Z,21.77
2023-05-12T11:20:48.918Z,21.35
2023-05-12T11:23:50.124Z,21.31
2023-05-12T11:26:50.992Z,21.51
2023-05-12T11:29:52.135Z,21.53
2023-05-12T11:32:53.018Z,21.63
2023-05-12T11:35:54.143Z,21.80
2023-05-12T11:38:55.078Z,21.82
2023-05-12T11:42:02.332Z,21.59
2023-05-12T11:44:57.778Z,21.51
2023-05-12T11:47:59.225Z,21.17
2023-05-12T11:50:58.647Z,20.88
2023-05-12T11:53:59.827Z,20.60
2023-05-12T11:57:00.725Z,20.22
2023-05-12T12:00:01.953Z,19.94
2023-05-12T12:03:02.415Z,19.95
2023-05-12T12:06:03.577Z,19.84
2023-05-12T12:09:04.420Z,19.69
2023-05-12T12:12:05.040Z,19.46
2023-05-12T12:15:05.916Z,19.51
2023-05-12T12:18:07.103Z,19.45
2023-05-12T12:21:07.974Z,19.34
2023-05-12T12:24:09.110Z,19.38
2023-05-12T12:27:09.974Z,19.40
2023-05-12T12:30:11.134Z,19.64
2023-05-12T12:33:12.095Z,19.77
2023-05-12T12:36:13.230Z,19.78
2023-05-12T12:39:14.207Z,19.82
2023-05-12T12:42:15.308Z,19.64
2023-05-12T12:45:17.002Z,19.49
2023-05-12T12:48:16.856Z,19.38
2023-05-12T12:51:18.002Z,19.30
2023-05-12T12:54:18.888Z,19.31
2023-05-12T12:57:19.998Z,19.37
2023-05-12T13:00:20.872Z,19.66
2023-05-12T13:03:22.051Z,20.03
2023-05-12T13:06:22.891Z,20.30
2023-05-12T13:09:24.056Z,20.59
2023-05-12T13:12:24.892Z,21.12
2023-05-12T13:15:26.271Z,21.49
2023-05-12T13:18:26.619Z,21.48
2023-05-12T13:21:27.736Z,21.25
2023-05-12T13:24:28.628Z,21.12
2023-05-12T13:27:29.733Z,20.77
2023-05-12T13:30:30.585Z,20.14
2023-05-12T13:33:31.728Z,19.95
2023-05-12T13:36:32.588Z,19.78
2023-05-12T13:39:33.764Z,19.61
2023-05-12T13:42:34.603Z,19.35
2023-05-12T13:45:35.780Z,19.25
2023-05-12T13:48:36.606Z,19.43
2023-05-12T13:51:37.748Z,19.51
2023-05-12T13:54:39.131Z,19.65
2023-05-12T13:57:39.730Z,19.80
2023-05-12T14:00:40.585Z,19.92
2023-05-12T14:03:41.722Z,20.24
2023-05-12T14:06:42.581Z,20.35
2023-05-12T14:09:43.785Z,20.67
2023-05-12T14:12:44.635Z,20.94
2023-05-12T14:15:49.707Z,21.23
2023-05-12T14:18:46.450Z,21.29
2023-05-12T14:21:47.086Z,21.30
2023-05-12T14:24:47.979Z,21.33
2023-05-12T14:27:49.088Z,21.58
2023-05-12T14:30:49.966Z,21.59
2023-05-12T14:33:51.098Z,21.59
2023-05-12T14:36:51.962Z,21.45
2023-05-12T14:39:53.135Z,21.64
2023-05-12T14:42:53.954Z,21.76
2023-05-12T14:45:55.214Z,21.71
2023-05-12T14:48:55.596Z,21.77
2023-05-12T14:51:56.716Z,21.66
2023-05-12T14:54:57.645Z,21.77
2023-05-12T14:57:58.773Z,21.79
2023-05-12T15:00:59.715Z,21.72
2023-05-12T15:04:00.818Z,21.84
2023-05-12T15:07:01.700Z,21.97
2023-05-12T15:10:02.975Z,22.02
2023-05-12T15:13:03.399Z,22.13
2023-05-12T15:16:04.563Z,22.11
2023-05-12T15:19:05.438Z,22.10
2023-05-12T15:22:06.633Z,22.16
2023-05-12T15:25:07.487Z,21.97
2023-05-12T15:28:08.606Z,21.94
2023-05-12T15:31:09.531Z,21.88
2023-05-12T15:34:10.632Z,22.04
2023-05-12T15:37:11.509Z,22.11
2023-05-12T15:40:12.637Z,21.79
2023-05-12T15:43:13.479Z,21.87
2023-05-12T15:46:14.645Z,21.72
2023-05-12T15:49:15.509Z,21.57
2023-05-12T15:52:16.615Z,21.64
2023-05-12T15:55:17.632Z,21.53
2023-05-12T15:58:18.291Z,21.57
2023-05-12T16:01:19.228Z,21.56
2023-05-12T16:04:20.442Z,21.66
2023-05-12T16:07:21.286Z,21.31
2023-05-12T16:10:22.445Z,21.11
2023-05-12T16:13:23.303Z,20.95
2023-05-12T16:16:24.537Z,20.84
2023-05-12T16:19:24.961Z,20.75
2023-05-12T16:22:26.085Z,20.44
2023-05-12T16:25:26.983Z,20.38
2023-05-12T16:28:28.092Z,20.24
2023-05-12T16:31:28.991Z,20.24
2023-05-12T16:34:30.143Z,20.03
2023-05-12T16:37:31.043Z,20.01
2023-05-12T16:40:32.229Z,19.95
2023-05-12T16:43:33.066Z,19.79
2023-05-12T16:46:34.289Z,19.85
2023-05-12T16:49:35.163Z,19.82
2023-05-12T16:52:36.330Z,19.96
2023-05-12T16:55:37.216Z,19.72
2023-05-12T16:58:38.324Z,19.80
2023-05-12T17:01:39.249Z,19.72
2023-05-12T17:04:40.428Z,19.54
2023-05-12T17:07:41.302Z,19.35
2023-05-12T17:10:42.487Z,19.09
2023-05-12T17:13:43.351Z,18.95
2023-05-12T17:16:44.519Z,18.95
2023-05-12T17:19:45.423Z,18.85
2023-05-12T17:22:46.521Z,18.83
2023-05-12T17:25:47.422Z,18.73
2023-05-12T17:28:48.564Z,18.79
2023-05-12T17:31:49.487Z,18.72
2023-05-12T17:34:50.594Z,18.64
2023-05-12T17:37:51.490Z,18.55
2023-05-12T17:40:52.673Z,18.56
2023-05-12T17:43:53.512Z,18.64
2023-05-12T17:46:54.679Z,18.59
2023-05-12T17:49:55.690Z,18.58
2023-05-12T17:52:56.855Z,18.37
2023-05-12T17:55:57.766Z,18.32
2023-05-12T17:58:58.857Z,18.36
2023-05-12T18:01:59.748Z,18.26
2023-05-12T18:05:00.899Z,18.28
2023-05-12T18:08:01.751Z,18.31
2023-05-12T18:11:02.902Z,18.06
2023-05-12T18:14:03.739Z,18.07
2023-05-12T18:17:05.003Z,18.08
2023-05-12T18:20:05.336Z,18.05
2023-05-12T18:23:06.450Z,17.95
2023-05-12T18:26:07.417Z,17.84
2023-05-12T18:29:08.494Z,17.76
2023-05-12T18:32:09.395Z,17.71
2023-05-12T18:35:10.502Z,17.55
2023-05-12T18:38:11.455Z,17.48
2023-05-12T18:41:12.603Z,17.45
2023-05-12T18:44:13.460Z,17.37
2023-05-12T18:47:14.584Z,17.33
2023-05-12T18:50:15.517Z,17.28
2023-05-12T18:53:16.644Z,17.18
2023-05-12T18:56:17.538Z,17.12
2023-05-12T18:59:18.617Z,17.02
2023-05-12T19:02:19.489Z,16.97
2023-05-12T19:05:20.753Z,16.93
2023-05-12T19:08:21.210Z,16.93
2023-05-12T19:11:22.398Z,16.90
2023-05-12T19:14:23.239Z,16.87
2023-05-12T19:17:24.397Z,16.83
2023-05-12T19:20:25.225Z,16.80
2023-05-12T19:23:26.401Z,16.77
2023-05-12T19:26:27.286Z,16.70
2023-05-12T19:29:28.386Z,16.65
2023-05-12T19:32:29.266Z,16.62
2023-05-12T19:35:30.429Z,16.58
2023-05-12T19:38:31.291Z,16.52
2023-05-12T19:41:32.477Z,16.50
2023-05-12T19:44:33.319Z,16.49
2023-05-12T19:47:34.522Z,16.42
2023-05-12T19:50:35.352Z,16.42
2023-05-12T19:53:36.488Z,16.41
2023-05-12T19:56:37.366Z,16.37
2023-05-12T19:59:38.524Z,16.35
2023-05-12T20:02:39.514Z,16.34
2023-05-12T20:05:40.189Z,16.33
2023-05-12T20:08:41.068Z,16.34
2023-05-12T20:11:42.257Z,16.30
2023-05-12T20:14:43.108Z,16.27
2023-05-12T20:17:44.259Z,16.26
2023-05-12T20:20:45.110Z,16.24
2023-05-12T20:23:46.274Z,16.22
2023-05-12T20:26:47.191Z,16.17
2023-05-12T20:29:48.282Z,16.15
2023-05-12T20:32:49.195Z,16.09
2023-05-12T20:35:50.355Z,16.02
2023-05-12T20:38:51.212Z,15.99
2023-05-12T20:41:52.377Z,15.94
2023-05-12T20:44:53.214Z,15.86
2023-05-12T20:47:54.423Z,15.79
2023-05-12T20:50:55.286Z,15.71
2023-05-12T20:53:56.428Z,15.62
2023-05-12T20:56:57.330Z,15.56
2023-05-12T20:59:58.507Z,15.49
2023-05-12T21:02:58.965Z,15.44
2023-05-12T21:06:00.083Z,15.34
2023-05-12T21:09:00.965Z,15.30
2023-05-12T21:12:02.107Z,15.22
2023-05-12T21:15:02.987Z,15.14
2023-05-12T21:18:04.182Z,15.03
2023-05-12T21:21:05.074Z,14.96
2023-05-12T21:24:06.198Z,14.83
2023-05-12T21:27:07.176Z,14.80
2023-05-12T21:30:08.304Z,14.71
2023-05-12T21:33:09.224Z,14.62
2023-05-12T21:36:10.358Z,14.50
2023-05-12T21:39:11.264Z,14.45
2023-05-12T21:42:12.418Z,14.34
2023-05-12T21:45:13.310Z,14.24
2023-05-12T21:48:14.433Z,14.09
2023-05-12T21:51:15.366Z,14.03
2023-05-12T21:54:16.492Z,13.97
2023-05-12T21:57:17.411Z,13.88
2023-05-12T22:00:18.553Z,13.80
2023-05-12T22:03:19.098Z,13.72
2023-05-12T22:06:20.212Z,13.63
2023-05-12T22:09:21.091Z,13.52
2023-05-12T22:12:22.279Z,13.44
2023-05-12T22:15:23.174Z,13.38
2023-05-12T22:18:24.402Z,13.34
2023-05-12T22:21:25.263Z,13.30
2023-05-12T22:24:26.496Z,13.23
2023-05-12T22:27:26.902Z,13.15
2023-05-12T22:30:27.772Z,13.14
2023-05-12T22:33:28.409Z,13.12
2023-05-12T22:36:29.336Z,13.09
2023-05-12T22:39:30.502Z,13.03
2023-05-12T22:42:31.379Z,13.01
2023-05-12T22:45:32.482Z,12.97
2023-05-12T22:48:38.691Z,12.93
2023-05-12T22:51:34.928Z,12.90
2023-05-12T22:54:35.053Z,12.87
2023-05-12T22:57:35.955Z,12.83
2023-05-12T23:00:37.172Z,12.82
2023-05-12T23:03:38.048Z,12.77
2023-05-12T23:06:39.177Z,12.75
2023-05-12T23:09:40.072Z,12.68
2023-05-12T23:12:41.234Z,12.64
2023-05-12T23:15:42.157Z,12.59
2023-05-12T23:18:43.335Z,12.54
2023-05-12T23:21:44.254Z,12.49
2023-05-12T23:24:45.378Z,12.45
2023-05-12T23:27:46.301Z,12.39
2023-05-12T23:30:47.471Z,12.35
2023-05-12T23:33:48.407Z,12.32
2023-05-12T23:36:49.533Z,12.29
2023-05-12T23:39:50.409Z,12.28
2023-05-12T23:42:51.613Z,12.27
2023-05-12T23:45:52.492Z,12.25
2023-05-12T23:48:53.658Z,12.22
2023-05-12T23:51:54.533Z,12.17
2023-05-12T23:54:55.691Z,12.16
2023-05-12T23:57:56.652Z,12.12
